createdAt,value
2022-11-14T00:01:12.849Z,97.50
2022-11-14T00:03:39.959Z,97.50
2022-11-14T00:06:07.314Z,97.40
2022-11-14T00:08:34.512Z,97.50
2022-11-14T00:11:01.182Z,97.40
2022-11-14T00:13:27.878Z,97.40
2022-11-14T00:15:54.765Z,97.50
2022-11-14T00:18:22.184Z,97.50
2022-11-14T00:20:49.837Z,97.50
2022-11-14T00:23:16.633Z,97.50
2022-11-14T00:25:44.542Z,97.60
2022-11-14T00:28:11.402Z,97.40
2022-11-14T00:30:38.211Z,97.30
2022-11-14T00:33:04.941Z,97.30
2022-11-14T00:35:31.612Z,97.20
2022-11-14T00:37:58.331Z,97.20
2022-11-14T00:40:25.010Z,97.20
2022-11-14T00:42:51.677Z,97.30
2022-11-14T00:45:18.419Z,97.30
2022-11-14T00:47:45.083Z,97.30
2022-11-14T00:50:11.823Z,97.30
2022-11-14T00:52:38.527Z,97.20
2022-11-14T00:55:05.532Z,97.20
2022-11-14T00:57:32.211Z,97.20
2022-11-14T00:59:59.026Z,97.20
2022-11-14T01:02:25.713Z,97.20
2022-11-14T01:04:52.661Z,97.30
2022-11-14T01:07:19.472Z,97.20
2022-11-14T01:09:46.161Z,97.30
2022-11-14T01:12:12.897Z,97.20
2022-11-14T01:14:40.817Z,97.30
2022-11-14T01:17:07.755Z,97.20
2022-11-14T01:19:34.492Z,97.10
2022-11-14T01:22:05.870Z,97.20
2022-11-14T01:24:33.924Z,97.10
2022-11-14T01:27:00.984Z,97.10
2022-11-14T01:29:27.764Z,97.20
2022-11-14T01:31:54.498Z,97.20
2022-11-14T01:34:21.287Z,97.10
2022-11-14T01:36:47.980Z,97.20
2022-11-14T01:39:14.713Z,97.20
2022-11-14T01:41:41.399Z,97.10
2022-11-14T01:44:18.171Z,97.20
2022-11-14T01:46:50.301Z,97.20
2022-11-14T01:49:26.045Z,97.10
2022-11-14T01:52:01.260Z,97.10
2022-11-14T01:54:39.237Z,97.20
2022-11-14T01:57:06.874Z,97.20
2022-11-14T01:59:38.034Z,97.40
2022-11-14T02:02:10.755Z,97.20
2022-11-14T02:04:39.701Z,97.20
2022-11-14T02:07:06.706Z,97.40
2022-11-14T02:09:37.394Z,97.30
2022-11-14T02:12:06.067Z,97.30
2022-11-14T02:14:33.668Z,97.20
2022-11-14T02:17:27.809Z,97.20
2022-11-14T02:19:49.154Z,97.30
2022-11-14T02:22:15.894Z,97.20
2022-11-14T02:24:43.692Z,97.20
2022-11-14T02:27:10.581Z,97.30
2022-11-14T02:29:44.347Z,97.20
2022-11-14T02:32:11.263Z,97.30
2022-11-14T02:34:38.237Z,97.20
2022-11-14T02:37:05.368Z,97.20
2022-11-14T02:39:32.032Z,97.20
2022-11-14T02:41:58.728Z,97.20
2022-11-14T02:44:25.579Z,97.20
2022-11-14T02:46:52.285Z,97.20
2022-11-14T02:49:29.420Z,97.20
2022-11-14T02:51:56.200Z,97.20
2022-11-14T02:54:22.873Z,97.20
2022-11-14T02:56:49.572Z,97.10
2022-11-14T02:59:16.341Z,97.20
2022-11-14T03:01:43.129Z,97.20
2022-11-14T03:04:09.933Z,97.20
2022-11-14T03:06:36.851Z,97.20
2022-11-14T03:09:03.811Z,97.10
2022-11-14T03:11:31.212Z,97.20
2022-11-14T03:13:59.262Z,97.40
2022-11-14T03:16:26.026Z,97.20
2022-11-14T03:18:53.153Z,97.10
2022-11-14T03:21:21.104Z,97.40
2022-11-14T03:23:47.927Z,97.10
2022-11-14T03:26:15.115Z,97.10
2022-11-14T03:28:42.400Z,97.20
2022-11-14T03:31:10.539Z,97.20
2022-11-14T03:33:37.294Z,97.20
2022-11-14T03:36:04.344Z,97.20
2022-11-14T03:38:31.373Z,97.20
2022-11-14T03:40:58.880Z,97.10
2022-11-14T03:43:25.745Z,97.10
2022-11-14T03:45:52.438Z,97.20
2022-11-14T03:48:19.104Z,97.10
2022-11-14T03:50:45.846Z,97.10
2022-11-14T03:53:12.573Z,97.20
2022-11-14T03:55:40.161Z,97.20
2022-11-14T03:58:06.915Z,97.20
2022-11-14T04:00:33.640Z,97.10
2022-11-14T04:03:00.456Z,97.20
2022-11-14T04:05:27.486Z,97.20
2022-11-14T04:07:54.173Z,97.20
2022-11-14T04:10:20.884Z,97.20
2022-11-14T04:12:54.100Z,97.20
2022-11-14T04:15:21.040Z,97.20
2022-11-14T04:17:47.805Z,97.20
2022-11-14T04:20:15.073Z,97.30
2022-11-14T04:22:41.817Z,97.30
2022-11-14T04:25:09.364Z,97.20
2022-11-14T04:27:36.200Z,97.30
2022-11-14T04:30:03.872Z,97.20
2022-11-14T04:32:30.772Z,97.30
2022-11-14T04:34:57.568Z,97.30
2022-11-14T04:37:24.301Z,97.30
2022-11-14T04:39:51.040Z,97.30
2022-11-14T04:42:17.842Z,97.30
2022-11-14T04:44:44.601Z,97.30
2022-11-14T04:47:11.312Z,97.30
2022-11-14T04:49:38.116Z,97.20
2022-11-14T04:52:04.854Z,97.20
2022-11-14T04:54:31.561Z,97.40
2022-11-14T04:56:58.268Z,97.20
2022-11-14T04:59:24.968Z,97.20
2022-11-14T05:01:51.701Z,97.30
2022-11-14T05:04:18.555Z,97.30
2022-11-14T05:06:45.333Z,97.40
2022-11-14T05:09:12.027Z,97.30
2022-11-14T05:11:38.862Z,97.40
2022-11-14T05:14:05.548Z,97.30
2022-11-14T05:16:32.352Z,97.30
2022-11-14T05:18:59.084Z,97.30
2022-11-14T05:21:25.768Z,97.30
2022-11-14T05:23:52.447Z,97.30
2022-11-14T05:26:19.387Z,97.50
2022-11-14T05:28:46.093Z,97.30
2022-11-14T05:31:14.976Z,97.30
2022-11-14T05:33:41.817Z,97.20
2022-11-14T05:36:09.641Z,97.30
2022-11-14T05:38:36.357Z,97.40
2022-11-14T05:41:13.166Z,97.20
2022-11-14T05:43:40.367Z,97.20
2022-11-14T05:46:09.581Z,97.20
2022-11-14T05:48:36.565Z,97.20
2022-11-14T05:51:04.052Z,97.10
2022-11-14T05:53:31.271Z,97.20
2022-11-14T05:56:02.291Z,97.20
2022-11-14T05:58:29.292Z,97.20
2022-11-14T06:01:06.866Z,97.10
2022-11-14T06:03:41.116Z,97.20
2022-11-14T06:06:17.765Z,97.30
2022-11-14T06:08:44.515Z,97.20
2022-11-14T06:11:12.867Z,97.20
2022-11-14T06:13:39.735Z,97.30
2022-11-14T06:16:07.984Z,97.30
2022-11-14T06:18:36.054Z,97.30
2022-11-14T06:21:04.238Z,97.30
2022-11-14T06:23:30.937Z,97.30
2022-11-14T06:26:01.549Z,97.30
2022-11-14T06:28:28.768Z,97.30
2022-11-14T06:30:59.925Z,97.30
2022-11-14T06:33:33.631Z,97.20
2022-11-14T06:36:01.237Z,97.20
2022-11-14T06:38:28.601Z,97.30
2022-11-14T06:41:02.479Z,97.40
2022-11-14T06:43:29.240Z,97.30
2022-11-14T06:45:55.983Z,97.40
2022-11-14T06:48:22.791Z,97.30
2022-11-14T06:50:53.177Z,97.30
2022-11-14T06:53:19.916Z,97.30
2022-11-14T06:56:12.723Z,97.30
2022-11-14T06:58:40.850Z,97.30
2022-11-14T07:01:17.439Z,97.40
2022-11-14T07:03:44.575Z,97.40
2022-11-14T07:06:13.344Z,97.40
2022-11-14T07:08:40.250Z,97.40
2022-11-14T07:11:08.224Z,97.30
2022-11-14T07:13:35.483Z,97.40
2022-11-14T07:16:02.679Z,97.30
2022-11-14T07:18:31.070Z,97.40
2022-11-14T07:21:02.162Z,97.30
2022-11-14T07:23:29.286Z,97.40
2022-11-14T07:25:55.993Z,97.40
2022-11-14T07:28:22.819Z,97.30
2022-11-14T07:30:49.522Z,97.40
2022-11-14T07:33:16.223Z,97.30
2022-11-14T07:35:43.077Z,97.30
2022-11-14T07:38:09.765Z,97.30
2022-11-14T07:40:36.461Z,97.50
2022-11-14T07:43:03.645Z,97.40
2022-11-14T07:45:30.437Z,97.40
2022-11-14T07:47:57.656Z,97.40
2022-11-14T07:50:24.997Z,97.30
2022-11-14T07:52:52.480Z,97.40
2022-11-14T07:55:19.384Z,97.50
2022-11-14T07:57:49.226Z,97.40
2022-11-14T08:00:17.027Z,97.70
2022-11-14T08:02:45.475Z,97.40
2022-11-14T08:05:12.240Z,97.50
2022-11-14T08:07:39.163Z,97.30
2022-11-14T08:10:06.333Z,97.40
2022-11-14T08:12:33.131Z,97.30
2022-11-14T08:14:59.820Z,97.30
2022-11-14T08:17:26.572Z,97.30
2022-11-14T08:19:53.279Z,97.40
2022-11-14T08:22:19.994Z,97.40
2022-11-14T08:24:46.684Z,97.40
2022-11-14T08:27:13.430Z,97.40
2022-11-14T08:29:40.114Z,97.30
2022-11-14T08:32:06.955Z,97.50
2022-11-14T08:34:33.668Z,97.40
2022-11-14T08:37:01.406Z,97.40
2022-11-14T08:39:28.361Z,97.40
2022-11-14T08:41:55.734Z,97.40
2022-11-14T08:44:22.590Z,97.50
2022-11-14T08:46:49.895Z,97.40
2022-11-14T08:49:16.656Z,97.40
2022-11-14T08:51:43.364Z,97.40
2022-11-14T08:54:10.140Z,97.40
2022-11-14T08:56:39.288Z,97.50
2022-11-14T08:59:05.969Z,97.40
2022-11-14T09:01:32.848Z,97.40
2022-11-14T09:04:00.361Z,97.40
2022-11-14T09:06:27.223Z,97.40
2022-11-14T09:08:53.922Z,97.40
2022-11-14T09:11:20.702Z,97.40
2022-11-14T09:13:47.615Z,97.50
2022-11-14T09:16:14.370Z,97.40
2022-11-14T09:18:41.238Z,97.40
2022-11-14T09:21:08.683Z,97.50
2022-11-14T09:23:35.672Z,97.60
2022-11-14T09:26:06.629Z,97.60
2022-11-14T09:28:33.426Z,97.50
2022-11-14T09:31:01.097Z,97.40
2022-11-14T09:33:28.100Z,97.70
2022-11-14T09:35:58.420Z,97.60
2022-11-14T09:38:25.182Z,97.60
2022-11-14T09:40:51.919Z,97.50
2022-11-14T09:43:24.933Z,97.60
2022-11-14T09:45:52.653Z,97.70
2022-11-14T09:48:25.873Z,97.50
2022-11-14T09:51:09.607Z,97.40
2022-11-14T09:53:39.950Z,97.40
2022-11-14T09:56:09.976Z,97.50
2022-11-14T09:58:36.708Z,97.40
2022-11-14T10:01:09.499Z,97.50
2022-11-14T10:03:39.466Z,97.40
2022-11-14T10:06:19.296Z,97.70
2022-11-14T10:09:18.275Z,97.70
2022-11-14T10:11:52.377Z,97.70
2022-11-14T10:14:41.891Z,97.70
2022-11-14T10:17:27.158Z,97.70
2022-11-14T10:20:01.102Z,97.60
2022-11-14T10:22:46.349Z,97.70
2022-11-14T10:25:43.700Z,97.80
2022-11-14T10:28:19.633Z,97.50
2022-11-14T10:31:06.696Z,97.50
2022-11-14T10:33:49.006Z,97.60
2022-11-14T10:36:15.733Z,97.70
2022-11-14T10:38:45.608Z,97.60
2022-11-14T10:41:28.453Z,97.60
2022-11-14T10:43:59.563Z,97.40
2022-11-14T10:46:26.339Z,97.60
2022-11-14T10:48:57.590Z,97.90
2022-11-14T10:51:33.350Z,97.80
2022-11-14T10:54:05.891Z,97.80
2022-11-14T10:56:33.304Z,97.90
2022-11-14T10:59:00.061Z,97.90
2022-11-14T11:01:38.887Z,97.80
2022-11-14T11:04:24.442Z,97.70
2022-11-14T11:06:53.061Z,97.80
2022-11-14T11:09:45.073Z,97.70
2022-11-14T11:12:17.729Z,97.60
2022-11-14T11:14:45.517Z,97.80
2022-11-14T11:17:12.183Z,98.00
2022-11-14T11:19:39.636Z,97.80
2022-11-14T11:22:23.275Z,97.90
2022-11-14T11:24:50.041Z,97.70
2022-11-14T11:27:25.688Z,97.50
2022-11-14T11:30:02.736Z,97.40
2022-11-14T11:32:29.480Z,97.50
2022-11-14T11:34:57.179Z,97.70
2022-11-14T11:40:05.259Z,97.60
2022-11-14T11:45:25.765Z,97.70
2022-11-14T11:47:55.216Z,97.80
2022-11-14T11:50:24.223Z,97.60
2022-11-14T11:53:11.362Z,97.70
2022-11-14T11:55:49.498Z,97.70
2022-11-14T11:58:25.717Z,97.70
2022-11-14T12:00:55.196Z,97.60
2022-11-14T12:03:22.884Z,97.50
2022-11-14T12:05:49.744Z,97.50
2022-11-14T12:08:35.772Z,97.60
2022-11-14T12:11:02.962Z,97.60
2022-11-14T12:13:44.949Z,97.80
2022-11-14T12:16:17.773Z,97.60
2022-11-14T12:19:03.448Z,97.60
2022-11-14T12:21:50.984Z,97.60
2022-11-14T12:24:39.973Z,97.60
2022-11-14T12:27:24.735Z,97.70
2022-11-14T12:30:08.649Z,97.50
2022-11-14T12:32:42.118Z,97.80
2022-11-14T12:35:14.895Z,97.70
2022-11-14T12:37:50.035Z,97.60
2022-11-14T12:40:35.899Z,97.70
2022-11-14T12:43:03.187Z,97.80
2022-11-14T12:45:35.939Z,97.70
2022-11-14T12:48:22.986Z,97.50
2022-11-14T12:50:49.752Z,97.50
2022-11-14T12:53:37.845Z,97.40
2022-11-14T12:56:10.564Z,97.70
2022-11-14T12:58:37.254Z,97.70
2022-11-14T13:01:27.342Z,97.60
2022-11-14T13:04:17.258Z,97.50
2022-11-14T13:06:59.183Z,97.70
2022-11-14T13:09:25.961Z,97.70
2022-11-14T13:12:11.529Z,97.70
2022-11-14T13:15:09.963Z,97.60
2022-11-14T13:17:55.573Z,97.60
2022-11-14T13:20:40.861Z,97.50
2022-11-14T13:23:25.784Z,97.60
2022-11-14T13:26:13.411Z,97.60
2022-11-14T13:28:44.017Z,97.70
2022-11-14T13:31:19.774Z,97.70
2022-11-14T13:33:49.601Z,97.70
2022-11-14T13:36:22.884Z,97.50
2022-11-14T13:39:08.348Z,97.60
2022-11-14T13:41:47.096Z,97.60
2022-11-14T13:44:33.664Z,97.70
2022-11-14T13:47:15.767Z,97.80
2022-11-14T13:49:52.442Z,97.70
2022-11-14T13:52:19.685Z,97.70
2022-11-14T13:54:49.607Z,97.70
2022-11-14T13:57:28.236Z,97.70
2022-11-14T14:00:20.110Z,97.70
2022-11-14T14:02:59.669Z,97.70
2022-11-14T14:05:26.401Z,97.70
2022-11-14T14:07:53.062Z,97.70
2022-11-14T14:10:26.407Z,97.70
2022-11-14T14:13:02.490Z,97.70
2022-11-14T14:15:35.659Z,97.80
2022-11-14T14:18:02.565Z,97.80
2022-11-14T14:20:38.217Z,97.80
2022-11-14T14:23:17.537Z,97.80
2022-11-14T14:26:02.735Z,97.70
2022-11-14T14:28:34.340Z,97.80
2022-11-14T14:31:09.764Z,97.80
2022-11-14T14:33:41.016Z,97.80
2022-11-14T14:36:18.136Z,97.70
2022-11-14T14:38:45.224Z,97.80
2022-11-14T14:41:14.240Z,97.70
2022-11-14T14:43:42.180Z,97.90
2022-11-14T14:46:08.949Z,98.00
2022-11-14T14:48:38.889Z,98.00
2022-11-14T14:51:08.369Z,97.80
2022-11-14T14:53:35.746Z,97.80
2022-11-14T14:56:04.235Z,97.90
2022-11-14T14:58:33.018Z,97.80
2022-11-14T15:01:04.783Z,97.80
2022-11-14T15:03:36.731Z,97.80
2022-11-14T15:06:05.615Z,97.90
2022-11-14T15:08:35.803Z,97.80
2022-11-14T15:11:03.149Z,97.90
2022-11-14T15:13:30.666Z,97.80
2022-11-14T15:15:58.125Z,97.90
2022-11-14T15:18:32.469Z,97.90
2022-11-14T15:21:11.967Z,97.80
2022-11-14T15:23:39.122Z,97.90
2022-11-14T15:26:11.489Z,97.90
2022-11-14T15:28:38.323Z,98.00
2022-11-14T15:31:05.183Z,98.00
2022-11-14T15:33:33.126Z,98.10
2022-11-14T15:36:13.407Z,98.00
2022-11-14T15:38:54.085Z,97.90
2022-11-14T15:41:22.462Z,98.00
2022-11-14T15:43:50.796Z,98.10
2022-11-14T15:46:36.011Z,98.00
2022-11-14T15:49:29.000Z,98.00
2022-11-14T15:52:00.648Z,98.00
2022-11-14T15:54:30.218Z,97.90
2022-11-14T15:57:01.326Z,98.00
2022-11-14T15:59:30.217Z,98.00
2022-11-14T16:01:59.244Z,98.10
2022-11-14T16:04:29.717Z,98.00
2022-11-14T16:06:56.483Z,98.00
2022-11-14T16:09:23.676Z,97.90
2022-11-14T16:11:50.764Z,98.10
2022-11-14T16:14:17.529Z,98.00
2022-11-14T16:16:44.299Z,98.10
2022-11-14T16:19:13.117Z,98.10
2022-11-14T16:21:39.914Z,98.10
2022-11-14T16:24:06.940Z,98.10
2022-11-14T16:26:33.709Z,98.00
2022-11-14T16:29:00.467Z,98.00
2022-11-14T16:31:27.184Z,98.00
2022-11-14T16:33:54.136Z,98.10
2022-11-14T16:36:21.147Z,98.20
2022-11-14T16:38:52.072Z,98.20
2022-11-14T16:41:19.636Z,98.10
2022-11-14T16:43:47.497Z,98.10
2022-11-14T16:46:14.428Z,98.00
2022-11-14T16:48:41.284Z,98.10
2022-11-14T16:51:33.055Z,98.10
2022-11-14T16:53:55.155Z,98.10
2022-11-14T16:56:21.847Z,98.10
2022-11-14T16:58:53.137Z,98.10
2022-11-14T17:01:21.349Z,98.00
2022-11-14T17:03:48.345Z,98.10
2022-11-14T17:06:15.037Z,97.90
2022-11-14T17:08:41.801Z,98.10
2022-11-14T17:11:09.823Z,98.10
2022-11-14T17:13:36.944Z,98.10
2022-11-14T17:16:04.726Z,98.10
2022-11-14T17:18:37.133Z,98.10
2022-11-14T17:21:06.300Z,98.10
2022-11-14T17:23:33.177Z,98.10
2022-11-14T17:26:07.518Z,98.10
2022-11-14T17:28:34.586Z,98.00
2022-11-14T17:31:05.895Z,98.10
2022-11-14T17:33:33.044Z,98.00
2022-11-14T17:36:07.206Z,98.10
2022-11-14T17:38:34.575Z,98.00
2022-11-14T17:41:01.372Z,98.00
2022-11-14T17:43:28.312Z,98.00
2022-11-14T17:45:56.203Z,98.00
2022-11-14T17:48:23.396Z,98.00
2022-11-14T17:50:50.495Z,98.10
2022-11-14T17:53:17.604Z,98.10
2022-11-14T17:55:45.383Z,98.00
2022-11-14T17:58:12.704Z,98.10
2022-11-14T18:00:39.513Z,98.10
2022-11-14T18:03:06.276Z,98.00
2022-11-14T18:05:32.970Z,98.10
2022-11-14T18:07:59.792Z,98.10
2022-11-14T18:10:26.519Z,98.10
2022-11-14T18:12:53.293Z,98.10
2022-11-14T18:15:22.694Z,98.10
2022-11-14T18:17:53.376Z,98.10
2022-11-14T18:20:20.092Z,98.10
2022-11-14T18:22:46.841Z,98.10
2022-11-14T18:25:13.582Z,98.30
2022-11-14T18:27:40.500Z,98.20
2022-11-14T18:30:39.271Z,98.10
2022-11-14T18:32:54.397Z,98.10
2022-11-14T18:35:21.097Z,98.10
2022-11-14T18:37:47.801Z,98.10
2022-11-14T18:40:16.523Z,98.30
2022-11-14T18:42:43.655Z,98.10
2022-11-14T18:45:10.442Z,98.10
2022-11-14T18:47:37.225Z,98.20
2022-11-14T18:50:04.092Z,98.10
2022-11-14T18:52:30.796Z,98.00
2022-11-14T18:54:57.619Z,98.00
2022-11-14T18:57:24.382Z,98.20
2022-11-14T18:59:51.068Z,98.10
2022-11-14T19:02:17.949Z,98.20
2022-11-14T19:04:44.724Z,98.20
2022-11-14T19:07:11.507Z,98.10
2022-11-14T19:09:39.517Z,98.20
2022-11-14T19:12:23.437Z,98.20
2022-11-14T19:14:53.942Z,98.20
2022-11-14T19:17:21.116Z,98.10
2022-11-14T19:19:53.420Z,98.20
2022-11-14T19:22:20.569Z,98.10
2022-11-14T19:24:47.456Z,98.10
2022-11-14T19:27:14.550Z,98.20
2022-11-14T19:29:41.441Z,98.20
2022-11-14T19:32:08.281Z,98.00
2022-11-14T19:34:35.062Z,98.20
2022-11-14T19:37:01.818Z,98.10
2022-11-14T19:39:28.803Z,98.30
2022-11-14T19:41:55.491Z,98.20
2022-11-14T19:44:22.267Z,98.10
2022-11-14T19:46:49.068Z,98.20
2022-11-14T19:49:15.756Z,98.20
2022-11-14T19:51:43.016Z,98.10
2022-11-14T19:54:10.400Z,98.20
2022-11-14T19:56:37.242Z,98.10
2022-11-14T19:59:08.410Z,98.20
2022-11-14T20:01:37.907Z,98.20
2022-11-14T20:04:04.773Z,98.10
2022-11-14T20:06:34.158Z,98.00
2022-11-14T20:09:01.706Z,98.10
2022-11-14T20:11:29.128Z,98.30
2022-11-14T20:13:56.359Z,98.10
2022-11-14T20:16:24.319Z,98.10
2022-11-14T20:18:57.416Z,98.10
2022-11-14T20:21:26.357Z,98.20
2022-11-14T20:23:53.597Z,98.30
2022-11-14T20:26:20.965Z,98.40
2022-11-14T20:28:49.378Z,98.10
2022-11-14T20:31:17.552Z,98.10
2022-11-14T20:33:45.941Z,98.20
2022-11-14T20:36:14.236Z,98.30
2022-11-14T20:38:41.270Z,98.20
2022-11-14T20:41:09.339Z,98.10
2022-11-14T20:43:36.089Z,98.10
2022-11-14T20:46:04.293Z,98.00
2022-11-14T20:48:32.317Z,98.10
2022-11-14T20:51:25.427Z,97.90
2022-11-14T20:53:53.229Z,98.10
2022-11-14T20:56:20.416Z,98.10
2022-11-14T20:58:48.302Z,98.10
2022-11-14T21:01:15.483Z,98.20
2022-11-14T21:03:42.243Z,98.00
2022-11-14T21:06:11.468Z,98.00
2022-11-14T21:08:38.507Z,98.00
2022-11-14T21:11:06.926Z,98.10
2022-11-14T21:13:55.832Z,97.90
2022-11-14T21:16:24.156Z,97.90
2022-11-14T21:18:54.471Z,98.20
2022-11-14T21:21:23.786Z,98.20
2022-11-14T21:23:50.537Z,98.20
2022-11-14T21:26:18.472Z,98.30
2022-11-14T21:28:46.292Z,98.10
2022-11-14T21:31:20.301Z,98.10
2022-11-14T21:33:48.056Z,98.30
2022-11-14T21:39:02.376Z,98.20
2022-11-14T21:41:29.573Z,98.00
2022-11-14T21:43:57.789Z,97.90
2022-11-14T21:46:25.068Z,98.00
2022-11-14T21:48:51.760Z,98.10
2022-11-14T21:51:20.242Z,98.20
2022-11-14T21:53:47.791Z,98.20
2022-11-14T21:56:17.522Z,98.00
2022-11-14T21:58:44.237Z,98.10
2022-11-14T22:01:12.945Z,98.00
2022-11-14T22:03:58.597Z,98.00
2022-11-14T22:06:26.091Z,98.20
2022-11-14T22:08:54.206Z,98.10
2022-11-14T22:11:21.901Z,98.20
2022-11-14T22:13:49.136Z,98.20
2022-11-14T22:16:19.659Z,98.00
2022-11-14T22:18:46.803Z,98.10
2022-11-14T22:21:13.646Z,98.10
2022-11-14T22:23:40.343Z,98.00
2022-11-14T22:26:07.115Z,98.00
2022-11-14T22:28:33.834Z,98.00
2022-11-14T22:31:01.776Z,98.00
2022-11-14T22:33:32.415Z,98.00
2022-11-14T22:36:03.254Z,98.00
2022-11-14T22:38:30.704Z,98.20
2022-11-14T22:40:57.751Z,98.20
2022-11-14T22:43:26.422Z,98.40
2022-11-14T22:45:53.661Z,98.10
2022-11-14T22:48:20.481Z,98.00
2022-11-14T22:50:47.550Z,98.10
2022-11-14T22:53:14.263Z,98.10
2022-11-14T22:55:48.358Z,97.90
2022-11-14T22:58:15.330Z,97.90
2022-11-14T23:00:42.017Z,98.20
2022-11-14T23:03:08.856Z,98.20
2022-11-14T23:05:38.803Z,98.20
2022-11-14T23:08:05.622Z,97.90
2022-11-14T23:10:35.543Z,98.10
2022-11-14T23:13:02.319Z,98.10
2022-11-14T23:15:29.503Z,98.20
2022-11-14T23:17:57.980Z,98.00
2022-11-14T23:20:24.708Z,98.00
2022-11-14T23:22:51.445Z,98.00
2022-11-14T23:25:18.377Z,98.10
2022-11-14T23:27:45.058Z,98.00
2022-11-14T23:30:11.917Z,98.00
2022-11-14T23:32:38.789Z,97.90
2022-11-14T23:35:05.754Z,98.00
2022-11-14T23:37:32.476Z,98.00
2022-11-14T23:39:59.315Z,97.90
2022-11-14T23:42:25.997Z,97.90
2022-11-14T23:44:52.709Z,97.70
2022-11-14T23:47:19.529Z,97.70
2022-11-14T23:49:46.226Z,97.90
2022-11-14T23:52:12.918Z,98.00
2022-11-14T23:54:39.773Z,97.90
2022-11-14T23:57:06.461Z,97.90
2022-11-14T23:59:33.150Z,98.00
